createdAt,value
2019-05-26T00:02:11.499Z,88.36
2019-05-26T00:04:46.199Z,88.42
2019-05-26T00:07:30.274Z,88.40
2019-05-26T00:09:54.014Z,88.30
2019-05-26T00:12:26.416Z,88.12
2019-05-26T00:14:58.480Z,88.16
2019-05-26T00:17:30.560Z,88.07
2019-05-26T00:20:05.066Z,87.92
2019-05-26T00:22:39.389Z,88.23
2019-05-26T00:25:12.804Z,88.18
2019-05-26T00:27:44.234Z,87.76
2019-05-26T00:30:17.255Z,87.91
2019-05-26T00:32:48.878Z,87.78
2019-05-26T00:35:20.943Z,87.84
2019-05-26T00:37:53.215Z,88.26
2019-05-26T00:40:25.687Z,88.12
2019-05-26T00:42:57.549Z,88.14
2019-05-26T00:45:32.070Z,88.30
2019-05-26T00:48:04.938Z,88.46
2019-05-26T00:50:37.745Z,88.83
2019-05-26T00:53:11.846Z,89.22
2019-05-26T00:55:45.032Z,89.22
2019-05-26T00:58:17.718Z,89.27
2019-05-26T01:00:49.782Z,89.62
2019-05-26T01:03:21.759Z,89.81
2019-05-26T01:05:54.525Z,89.47
2019-05-26T01:08:26.287Z,89.32
2019-05-26T01:11:01.302Z,89.33
2019-05-26T01:13:31.846Z,89.28
2019-05-26T01:16:03.614Z,88.99
2019-05-26T01:18:35.359Z,88.40
2019-05-26T01:21:07.119Z,88.33
2019-05-26T01:23:41.446Z,88.38
2019-05-26T01:26:13.399Z,88.36
2019-05-26T01:28:45.474Z,88.62
2019-05-26T01:31:18.449Z,88.16
2019-05-26T01:33:51.025Z,87.97
2019-05-26T01:36:24.017Z,87.71
2019-05-26T01:38:55.977Z,87.71
2019-05-26T01:41:28.363Z,88.14
2019-05-26T01:43:59.756Z,88.66
2019-05-26T01:46:31.976Z,89.07
2019-05-26T01:49:06.288Z,88.67
2019-05-26T01:51:37.947Z,89.01
2019-05-26T01:54:10.522Z,89.88
2019-05-26T01:56:43.508Z,90.90
2019-05-26T01:59:15.371Z,91.19
2019-05-26T02:01:49.180Z,91.36
2019-05-26T02:04:21.693Z,91.44
2019-05-26T02:06:55.246Z,91.92
2019-05-26T02:09:27.210Z,92.29
2019-05-26T02:12:01.518Z,91.91
2019-05-26T02:14:33.591Z,91.30
2019-05-26T02:17:05.659Z,90.70
2019-05-26T02:19:37.622Z,89.88
2019-05-26T02:22:09.681Z,89.91
2019-05-26T02:24:41.949Z,89.68
2019-05-26T02:27:14.821Z,89.47
2019-05-26T02:29:47.823Z,89.50
2019-05-26T02:32:20.099Z,89.47
2019-05-26T02:34:53.899Z,89.65
2019-05-26T02:37:25.870Z,89.66
2019-05-26T02:39:57.850Z,89.65
2019-05-26T02:42:29.587Z,89.15
2019-05-26T02:45:01.709Z,88.93
2019-05-26T02:47:34.021Z,87.75
2019-05-26T02:50:08.901Z,87.55
2019-05-26T02:52:41.020Z,86.75
2019-05-26T02:55:15.742Z,86.48
2019-05-26T02:57:48.626Z,85.74
2019-05-26T03:00:38.716Z,84.09
2019-05-26T03:03:13.263Z,83.48
2019-05-26T03:05:46.085Z,82.37
2019-05-26T03:08:18.605Z,81.95
2019-05-26T03:10:52.451Z,82.37
2019-05-26T03:13:24.284Z,82.67
2019-05-26T03:15:58.683Z,82.57
2019-05-26T03:18:33.219Z,83.24
2019-05-26T03:21:05.998Z,82.77
2019-05-26T03:23:41.328Z,81.31
2019-05-26T03:26:16.262Z,80.08
2019-05-26T03:28:49.771Z,81.37
2019-05-26T03:31:22.867Z,81.72
2019-05-26T03:33:56.353Z,82.03
2019-05-26T03:36:30.874Z,81.12
2019-05-26T03:39:02.631Z,81.81
2019-05-26T03:41:36.542Z,81.39
2019-05-26T03:44:09.126Z,80.78
2019-05-26T03:46:42.723Z,80.74
2019-05-26T03:49:14.364Z,80.37
2019-05-26T03:51:48.410Z,80.17
2019-05-26T03:54:20.647Z,79.50
2019-05-26T03:56:53.428Z,80.04
2019-05-26T03:59:25.291Z,80.57
2019-05-26T04:01:58.224Z,80.14
2019-05-26T04:04:30.039Z,79.73
2019-05-26T04:07:01.744Z,79.81
2019-05-26T04:09:35.397Z,80.91
2019-05-26T04:12:07.876Z,80.85
2019-05-26T04:14:41.481Z,80.00
2019-05-26T04:17:18.243Z,80.95
2019-05-26T04:19:50.623Z,80.65
2019-05-26T04:22:22.836Z,80.72
2019-05-26T04:24:55.262Z,81.33
2019-05-26T04:27:27.832Z,80.77
2019-05-26T04:30:00.650Z,81.05
2019-05-26T04:32:33.715Z,81.18
2019-05-26T04:35:07.917Z,81.48
2019-05-26T04:37:39.499Z,81.98
2019-05-26T04:40:25.624Z,81.77
2019-05-26T04:42:45.342Z,80.71
2019-05-26T04:45:21.919Z,79.50
2019-05-26T04:47:54.077Z,76.30
2019-05-26T04:50:27.070Z,71.42
2019-05-26T04:53:06.545Z,71.34
2019-05-26T04:55:34.471Z,71.12
2019-05-26T04:58:07.476Z,71.80
2019-05-26T05:00:40.957Z,72.08
2019-05-26T05:03:14.217Z,73.32
2019-05-26T05:05:46.111Z,73.02
2019-05-26T05:08:17.974Z,71.41
2019-05-26T05:10:49.729Z,68.23
2019-05-26T05:13:24.891Z,65.61
2019-05-26T05:15:55.498Z,63.25
2019-05-26T05:18:30.846Z,59.50
2019-05-26T05:21:02.497Z,60.04
2019-05-26T05:23:34.463Z,57.53
2019-05-26T05:26:07.049Z,53.91
2019-05-26T05:28:39.205Z,56.68
2019-05-26T05:31:11.676Z,58.23
2019-05-26T05:33:46.609Z,63.43
2019-05-26T05:36:18.068Z,62.24
2019-05-26T05:38:51.663Z,60.12
2019-05-26T05:41:25.270Z,61.00
2019-05-26T05:43:57.767Z,58.39
2019-05-26T05:46:31.339Z,58.90
2019-05-26T05:49:03.159Z,59.58
2019-05-26T05:51:37.455Z,58.70
2019-05-26T05:54:08.921Z,59.62
2019-05-26T05:56:40.827Z,61.13
2019-05-26T05:59:12.423Z,62.62
2019-05-26T06:01:45.470Z,63.39
2019-05-26T06:04:17.198Z,62.39
2019-05-26T06:06:49.176Z,63.39
2019-05-26T06:09:24.645Z,65.77
2019-05-26T06:11:57.220Z,66.03
2019-05-26T06:14:29.139Z,65.46
2019-05-26T06:17:03.196Z,63.95
2019-05-26T06:19:34.522Z,66.82
2019-05-26T06:22:06.484Z,65.94
2019-05-26T06:24:37.953Z,66.68
2019-05-26T06:27:10.606Z,66.70
2019-05-26T06:29:57.973Z,65.27
2019-05-26T06:32:16.335Z,65.35
2019-05-26T06:34:48.437Z,65.35
2019-05-26T06:37:19.990Z,68.42
2019-05-26T06:39:51.755Z,68.00
2019-05-26T06:42:24.478Z,68.26
2019-05-26T06:44:55.891Z,68.93
2019-05-26T06:47:27.315Z,69.29
2019-05-26T06:49:59.376Z,69.29
2019-05-26T06:52:32.434Z,70.19
2019-05-26T06:55:04.477Z,69.14
2019-05-26T06:57:38.134Z,68.32
2019-05-26T07:00:10.556Z,67.57
2019-05-26T07:02:42.266Z,64.16
2019-05-26T07:05:18.060Z,63.13
2019-05-26T07:07:47.911Z,59.90
2019-05-26T07:10:19.364Z,59.17
2019-05-26T07:12:52.305Z,60.62
2019-05-26T07:15:23.821Z,60.71
2019-05-26T07:17:55.566Z,61.70
2019-05-26T07:20:28.095Z,61.41
2019-05-26T07:22:59.887Z,61.77
2019-05-26T07:25:31.886Z,60.69
2019-05-26T07:28:03.253Z,60.80
2019-05-26T07:30:35.102Z,59.62
2019-05-26T07:33:06.420Z,58.02
2019-05-26T07:35:38.775Z,61.36
2019-05-26T07:38:10.158Z,58.64
2019-05-26T07:40:41.711Z,59.88
2019-05-26T07:43:13.180Z,58.84
2019-05-26T07:45:44.634Z,57.17
2019-05-26T07:48:16.086Z,58.20
2019-05-26T07:50:47.423Z,57.88
2019-05-26T07:53:18.897Z,56.58
2019-05-26T07:55:50.256Z,58.88
2019-05-26T07:58:21.986Z,58.79
2019-05-26T08:00:53.331Z,58.54
2019-05-26T08:03:25.179Z,57.33
2019-05-26T08:05:57.614Z,54.77
2019-05-26T08:08:29.196Z,54.62
2019-05-26T08:11:02.735Z,54.85
2019-05-26T08:13:34.243Z,55.99
2019-05-26T08:16:05.711Z,55.05
2019-05-26T08:18:37.185Z,56.52
2019-05-26T08:21:09.548Z,56.55
2019-05-26T08:23:41.675Z,57.01
2019-05-26T08:26:13.059Z,58.00
2019-05-26T08:28:44.677Z,55.38
2019-05-26T08:31:17.675Z,55.09
2019-05-26T08:33:49.990Z,55.38
2019-05-26T08:36:23.275Z,56.04
2019-05-26T08:38:54.835Z,55.83
2019-05-26T08:41:27.093Z,56.58
2019-05-26T08:43:59.021Z,54.22
2019-05-26T08:46:31.109Z,53.20
2019-05-26T08:49:02.511Z,53.23
2019-05-26T08:51:33.918Z,52.69
2019-05-26T08:54:06.706Z,54.02
2019-05-26T08:56:38.355Z,53.32
2019-05-26T08:59:11.650Z,55.68
2019-05-26T09:01:45.667Z,56.81
2019-05-26T09:04:18.281Z,58.07
2019-05-26T09:06:49.716Z,58.07
2019-05-26T09:09:22.642Z,58.82
2019-05-26T09:11:56.455Z,58.52
2019-05-26T09:14:30.286Z,58.72
2019-05-26T09:17:02.357Z,59.09
2019-05-26T09:19:35.753Z,59.24
2019-05-26T09:22:09.653Z,58.72
2019-05-26T09:24:42.256Z,55.54
2019-05-26T09:27:16.193Z,57.86
2019-05-26T09:29:48.307Z,65.84
2019-05-26T09:32:21.599Z,75.40
2019-05-26T09:34:54.496Z,79.40
2019-05-26T09:37:26.350Z,81.36
2019-05-26T09:39:57.800Z,82.88
2019-05-26T09:42:29.554Z,82.08
2019-05-26T09:45:01.313Z,82.61
2019-05-26T09:47:32.720Z,83.09
2019-05-26T09:50:05.994Z,81.38
2019-05-26T09:52:37.938Z,79.51
2019-05-26T09:55:10.720Z,77.16
2019-05-26T09:57:46.349Z,77.58
2019-05-26T10:00:19.172Z,77.24
2019-05-26T10:02:52.320Z,75.40
2019-05-26T10:05:24.279Z,74.46
2019-05-26T10:07:56.651Z,71.41
2019-05-26T10:10:29.131Z,70.03
2019-05-26T10:13:01.094Z,68.89
2019-05-26T10:15:33.675Z,67.17
2019-05-26T10:18:06.568Z,68.20
2019-05-26T10:20:38.822Z,68.88
2019-05-26T10:23:10.581Z,68.37
2019-05-26T10:25:42.779Z,69.83
2019-05-26T10:28:15.709Z,69.36
2019-05-26T10:30:49.338Z,69.06
2019-05-26T10:33:20.834Z,68.03
2019-05-26T10:35:52.860Z,65.15
2019-05-26T10:38:25.336Z,66.79
2019-05-26T10:40:58.521Z,71.76
2019-05-26T10:43:45.951Z,74.81
2019-05-26T10:46:06.640Z,75.95
2019-05-26T10:48:38.398Z,75.79
2019-05-26T10:51:10.261Z,75.88
2019-05-26T10:53:42.427Z,71.53
2019-05-26T10:56:17.060Z,75.27
2019-05-26T10:58:49.421Z,74.95
2019-05-26T11:01:23.912Z,75.56
2019-05-26T11:03:56.934Z,73.91
2019-05-26T11:06:28.493Z,72.28
2019-05-26T11:09:00.243Z,70.26
2019-05-26T11:11:32.539Z,69.41
2019-05-26T11:14:05.193Z,65.68
2019-05-26T11:16:36.762Z,65.99
2019-05-26T11:19:09.422Z,65.15
2019-05-26T11:21:42.513Z,66.19
2019-05-26T11:24:18.883Z,66.73
2019-05-26T11:26:51.110Z,66.22
2019-05-26T11:29:22.907Z,63.13
2019-05-26T11:31:56.100Z,63.09
2019-05-26T11:34:27.973Z,61.57
2019-05-26T11:36:59.925Z,62.54
2019-05-26T11:39:32.302Z,61.54
2019-05-26T11:42:13.226Z,62.05
2019-05-26T11:44:39.855Z,62.75
2019-05-26T11:47:11.352Z,60.65
2019-05-26T11:49:43.323Z,60.65
2019-05-26T11:52:20.352Z,60.20
2019-05-26T11:54:54.259Z,61.18
2019-05-26T11:57:28.937Z,62.15
2019-05-26T12:00:00.987Z,64.23
2019-05-26T12:02:32.928Z,66.52
2019-05-26T12:05:08.169Z,67.96
2019-05-26T12:07:39.723Z,67.96
2019-05-26T12:10:14.689Z,64.75
2019-05-26T12:12:50.386Z,60.70
2019-05-26T12:15:22.220Z,60.39
2019-05-26T12:17:53.647Z,57.37
2019-05-26T12:20:28.111Z,57.29
2019-05-26T12:23:03.144Z,56.57
2019-05-26T12:25:34.590Z,57.16
2019-05-26T12:28:06.350Z,56.86
2019-05-26T12:30:37.715Z,57.98
2019-05-26T12:33:11.079Z,57.81
2019-05-26T12:35:44.365Z,57.84
2019-05-26T12:38:17.593Z,57.84
2019-05-26T12:40:57.167Z,58.10
2019-05-26T12:43:29.247Z,58.42
2019-05-26T12:46:01.779Z,58.04
2019-05-26T12:48:33.192Z,57.58
2019-05-26T12:51:04.750Z,58.15
2019-05-26T12:53:36.879Z,58.50
2019-05-26T12:56:08.343Z,60.35
2019-05-26T12:58:40.198Z,61.27
2019-05-26T13:01:13.239Z,70.15
2019-05-26T13:03:45.460Z,70.15
2019-05-26T13:06:17.763Z,76.95
2019-05-26T13:08:49.812Z,80.43
2019-05-26T13:11:22.920Z,84.44
2019-05-26T13:13:55.538Z,86.42
2019-05-26T13:16:28.255Z,82.79
2019-05-26T13:18:59.597Z,80.92
2019-05-26T13:21:31.620Z,78.34
2019-05-26T13:24:04.644Z,77.17
2019-05-26T13:26:36.205Z,75.28
2019-05-26T13:29:07.707Z,73.21
2019-05-26T13:31:40.340Z,76.24
2019-05-26T13:34:12.602Z,74.12
2019-05-26T13:36:44.173Z,73.69
2019-05-26T13:39:15.796Z,74.04
2019-05-26T13:41:47.193Z,74.17
2019-05-26T13:44:18.551Z,74.83
2019-05-26T13:46:53.819Z,74.44
2019-05-26T13:49:25.155Z,74.99
2019-05-26T13:51:59.252Z,74.15
2019-05-26T13:54:31.190Z,74.54
2019-05-26T13:57:02.614Z,75.13
2019-05-26T13:59:34.489Z,76.32
2019-05-26T14:02:06.044Z,80.02
2019-05-26T14:04:40.082Z,84.28
2019-05-26T14:07:13.325Z,84.12
2019-05-26T14:09:47.133Z,79.12
2019-05-26T14:12:20.349Z,80.18
2019-05-26T14:14:52.268Z,84.14
2019-05-26T14:17:24.333Z,81.75
2019-05-26T14:19:57.164Z,81.44
2019-05-26T14:22:28.955Z,81.06
2019-05-26T14:25:00.458Z,83.41
2019-05-26T14:27:34.057Z,85.46
2019-05-26T14:30:07.354Z,84.43
2019-05-26T14:32:38.781Z,85.82
2019-05-26T14:35:11.301Z,86.42
2019-05-26T14:37:43.834Z,85.37
2019-05-26T14:40:15.359Z,84.95
2019-05-26T14:42:49.946Z,84.21
2019-05-26T14:45:21.802Z,83.87
2019-05-26T14:47:56.307Z,84.68
2019-05-26T14:50:27.840Z,84.51
2019-05-26T14:52:59.611Z,84.37
2019-05-26T14:55:31.855Z,81.14
2019-05-26T14:58:15.279Z,82.93
2019-05-26T15:00:37.248Z,79.70
2019-05-26T15:03:08.628Z,79.84
2019-05-26T15:05:42.442Z,80.97
2019-05-26T15:08:14.038Z,77.58
2019-05-26T15:10:45.564Z,79.87
2019-05-26T15:13:20.241Z,78.00
2019-05-26T15:15:51.888Z,79.52
2019-05-26T15:18:23.218Z,78.04
2019-05-26T15:20:56.133Z,77.78
2019-05-26T15:23:32.422Z,80.38
2019-05-26T15:26:06.608Z,78.61
2019-05-26T15:28:37.883Z,77.88
2019-05-26T15:31:11.383Z,79.48
2019-05-26T15:33:43.002Z,77.68
2019-05-26T15:36:16.167Z,75.80
2019-05-26T15:38:50.249Z,76.21
2019-05-26T15:41:21.823Z,75.36
2019-05-26T15:43:55.594Z,73.67
2019-05-26T15:46:27.182Z,75.75
2019-05-26T15:48:58.632Z,74.77
2019-05-26T15:51:30.175Z,75.21
2019-05-26T15:54:02.927Z,74.46
2019-05-26T15:56:34.451Z,74.04
2019-05-26T15:59:05.870Z,73.06
2019-05-26T16:01:39.581Z,70.90
2019-05-26T16:04:12.322Z,72.53
2019-05-26T16:06:45.165Z,71.81
2019-05-26T16:09:17.247Z,72.76
2019-05-26T16:11:48.792Z,72.65
2019-05-26T16:14:22.375Z,72.18
2019-05-26T16:16:53.841Z,70.18
2019-05-26T16:19:28.185Z,72.48
2019-05-26T16:22:01.357Z,72.10
2019-05-26T16:31:29.261Z,72.33
2019-05-26T16:34:04.624Z,73.16
2019-05-26T16:36:38.645Z,72.88
2019-05-26T16:39:36.148Z,72.92
2019-05-26T16:42:08.385Z,72.28
2019-05-26T16:44:38.072Z,74.21
2019-05-26T16:47:10.830Z,74.48
2019-05-26T16:49:47.669Z,75.55
2019-05-26T16:52:25.123Z,76.26
2019-05-26T16:54:57.051Z,75.46
2019-05-26T16:57:28.817Z,75.93
2019-05-26T17:00:01.578Z,76.30
2019-05-26T17:02:33.565Z,76.72
2019-05-26T17:05:07.500Z,74.40
2019-05-26T17:07:42.197Z,73.64
2019-05-26T17:10:14.263Z,73.61
2019-05-26T17:12:45.916Z,73.39
2019-05-26T17:15:19.328Z,73.01
2019-05-26T17:17:51.994Z,72.73
2019-05-26T17:20:26.040Z,73.00
2019-05-26T17:23:01.113Z,72.84
2019-05-26T17:25:50.614Z,72.50
2019-05-26T17:28:22.992Z,72.76
2019-05-26T17:30:54.849Z,72.31
2019-05-26T17:33:28.571Z,73.05
2019-05-26T17:36:00.004Z,71.82
2019-05-26T17:38:34.975Z,72.31
2019-05-26T17:41:08.123Z,72.41
2019-05-26T17:43:39.983Z,72.89
2019-05-26T17:46:15.036Z,72.38
2019-05-26T17:48:45.962Z,71.98
2019-05-26T17:51:19.739Z,72.07
2019-05-26T17:53:52.646Z,71.12
2019-05-26T17:56:24.094Z,71.54
2019-05-26T17:58:55.768Z,71.64
2019-05-26T18:01:27.504Z,70.25
2019-05-26T18:04:03.967Z,69.90
2019-05-26T18:06:35.527Z,69.69
2019-05-26T18:09:11.419Z,69.48
2019-05-26T18:11:45.909Z,69.60
2019-05-26T18:14:20.227Z,69.18
2019-05-26T18:16:52.184Z,70.14
2019-05-26T18:19:29.808Z,70.26
2019-05-26T18:22:04.727Z,69.66
2019-05-26T18:24:36.999Z,70.62
2019-05-26T18:27:08.543Z,70.75
2019-05-26T18:29:41.749Z,70.86
2019-05-26T18:32:17.608Z,70.49
2019-05-26T18:34:49.412Z,71.76
2019-05-26T18:37:21.302Z,72.05
2019-05-26T18:39:54.808Z,73.15
2019-05-26T18:42:26.358Z,72.62
2019-05-26T18:44:58.240Z,72.59
2019-05-26T18:47:31.001Z,72.92
2019-05-26T18:50:06.316Z,73.00
2019-05-26T18:52:38.923Z,72.78
2019-05-26T18:55:10.745Z,73.60
2019-05-26T18:57:42.409Z,73.36
2019-05-26T19:00:14.759Z,72.85
2019-05-26T19:02:46.505Z,72.88
2019-05-26T19:05:32.514Z,74.12
2019-05-26T19:07:51.856Z,73.54
2019-05-26T19:10:23.420Z,73.46
2019-05-26T19:12:54.955Z,74.01
2019-05-26T19:15:26.592Z,73.05
2019-05-26T19:17:58.140Z,72.52
2019-05-26T19:20:29.769Z,72.75
2019-05-26T19:23:01.768Z,72.76
2019-05-26T19:25:33.535Z,72.21
2019-05-26T19:28:05.600Z,72.28
2019-05-26T19:30:37.109Z,72.42
2019-05-26T19:33:10.362Z,73.53
2019-05-26T19:35:42.030Z,73.54
2019-05-26T19:38:13.465Z,73.40
2019-05-26T19:40:46.418Z,73.20
2019-05-26T19:43:18.340Z,72.86
2019-05-26T19:45:51.439Z,72.73
2019-05-26T19:48:35.725Z,72.84
2019-05-26T19:50:58.336Z,73.23
2019-05-26T19:53:29.873Z,72.77
2019-05-26T19:56:01.569Z,70.19
2019-05-26T19:58:34.642Z,71.07
2019-05-26T20:01:06.180Z,70.66
2019-05-26T20:03:37.750Z,71.66
2019-05-26T20:06:11.535Z,70.68
2019-05-26T20:08:44.667Z,70.17
2019-05-26T20:11:17.011Z,69.30
2019-05-26T20:13:48.801Z,69.76
2019-05-26T20:16:22.049Z,69.14
2019-05-26T20:18:53.630Z,69.06
2019-05-26T20:21:26.578Z,67.71
2019-05-26T20:23:58.329Z,67.00
2019-05-26T20:26:32.277Z,67.12
2019-05-26T20:29:04.137Z,65.92
2019-05-26T20:31:36.623Z,66.14
2019-05-26T20:34:08.580Z,64.96
2019-05-26T20:36:42.287Z,63.78
2019-05-26T20:39:15.724Z,63.53
2019-05-26T20:41:47.537Z,63.41
2019-05-26T20:44:19.302Z,60.52
2019-05-26T20:46:51.259Z,60.81
2019-05-26T20:49:23.085Z,60.86
2019-05-26T20:51:54.882Z,61.45
2019-05-26T20:54:26.637Z,61.73
2019-05-26T20:56:58.828Z,61.49
2019-05-26T20:59:33.424Z,61.88
2019-05-26T21:02:05.900Z,61.20
2019-05-26T21:04:38.682Z,61.70
2019-05-26T21:07:10.767Z,62.70
2019-05-26T21:09:44.104Z,62.50
2019-05-26T21:12:16.204Z,61.87
2019-05-26T21:14:48.069Z,62.58
2019-05-26T21:17:21.458Z,62.77
2019-05-26T21:19:54.944Z,64.09
2019-05-26T21:22:27.044Z,63.79
2019-05-26T21:24:58.991Z,63.71
2019-05-26T21:27:30.752Z,63.26
2019-05-26T21:30:06.468Z,63.35
2019-05-26T21:32:39.385Z,63.42
2019-05-26T21:35:12.407Z,62.45
2019-05-26T21:37:46.907Z,61.92
2019-05-26T21:40:18.854Z,61.60
2019-05-26T21:42:50.610Z,62.14
2019-05-26T21:45:22.269Z,61.35
2019-05-26T21:47:54.023Z,61.99
2019-05-26T21:50:28.708Z,61.92
2019-05-26T21:53:00.307Z,61.84
2019-05-26T21:55:32.367Z,61.83
2019-05-26T21:58:04.864Z,61.78
2019-05-26T22:00:44.754Z,62.20
2019-05-26T22:03:17.281Z,62.24
2019-05-26T22:05:49.268Z,62.42
2019-05-26T22:08:21.195Z,61.91
2019-05-26T22:10:53.573Z,62.54
2019-05-26T22:13:25.433Z,62.43
2019-05-26T22:15:57.900Z,62.95
2019-05-26T22:18:29.862Z,62.36
2019-05-26T22:21:02.439Z,62.05
2019-05-26T22:23:34.810Z,62.14
2019-05-26T22:26:07.615Z,62.98
2019-05-26T22:28:41.300Z,62.11
2019-05-26T22:31:13.068Z,62.25
2019-05-26T22:33:45.426Z,61.30
2019-05-26T22:36:17.909Z,61.42
2019-05-26T22:38:49.561Z,61.39
2019-05-26T22:41:21.110Z,61.44
2019-05-26T22:43:52.866Z,60.97
2019-05-26T22:46:24.726Z,60.93
2019-05-26T22:48:57.221Z,61.28
2019-05-26T22:51:29.984Z,61.92
2019-05-26T22:54:03.486Z,61.75
2019-05-26T22:56:35.342Z,62.04
2019-05-26T22:59:07.200Z,62.17
2019-05-26T23:01:39.267Z,62.13
2019-05-26T23:04:12.050Z,62.13
2019-05-26T23:06:44.837Z,62.38
2019-05-26T23:09:19.147Z,62.59
2019-05-26T23:11:52.646Z,61.84
2019-05-26T23:14:24.410Z,61.88
2019-05-26T23:16:57.186Z,61.67
2019-05-26T23:19:29.766Z,62.28
2019-05-26T23:22:01.729Z,61.53
2019-05-26T23:24:34.404Z,61.96
2019-05-26T23:27:06.674Z,62.09
2019-05-26T23:29:39.059Z,62.22
2019-05-26T23:32:10.915Z,62.77
2019-05-26T23:34:42.972Z,62.68
2019-05-26T23:37:15.144Z,63.23
2019-05-26T23:39:48.636Z,63.13
2019-05-26T23:42:22.137Z,63.71
2019-05-26T23:44:54.002Z,63.81
2019-05-26T23:47:26.678Z,63.92
2019-05-26T23:49:58.496Z,64.20
2019-05-26T23:52:32.442Z,63.93
2019-05-26T23:55:05.532Z,64.23
2019-05-26T23:57:37.598Z,64.62
